Williamsfield, Illinois
Current Conditions -  °F | °C
As of 5:55 AM on Monday 24 Nov 2014 (Local Time) from KGBG Reporting Station
Moderate Snow Moderate Snow  
Wind Chill: 20°   Ceiling: 600
Heat Index: 32°   Visibility: 1mi
Dew Point: 31°   Wind: 21mph
Humidity: 98%   Direction: 280°W
Pressure: 29.28"   Gusts: 28mph
Location:  40.92°N, 90.01°W
Report Text: KGBG 241155Z AUTO 28018G24KT 1SM SN OVC006 00/00 A2928 RMK AO2 P0004 60006 70052 T00001003 10072 20000
Loading
Personal Weather Stations






























Interactive Weather Map New forecast layout! Learn more

10-Day Weather Forecast

Advertisements
Track Severe Weather on mobile